Time;durP1;ratioP1;P1;durP2;ratioP2;P2;SDS_P1;SDS_P2;PMS_P1;PMS_P2;Temp;Humidity;BMP_temperature;BMP_pressure;BME280_temperature;BME280_humidity;BME280_pressure;Samples;Min_cycle;Max_cycle;Signal;HPM_P1;HPM_P2
2021/12/06 00:02:43;;;;;;;213.88;198.75;;;4.40;99.90;;;;;;5076300;28;20190;-90
2021/12/06 00:05:31;;;;;;;190.52;176.18;;;4.50;99.90;;;;;;5094434;28;20148;-90
2021/12/06 00:08:24;;;;;;;165.20;151.57;;;4.50;99.90;;;;;;5075927;28;20171;-89
2021/12/06 00:14:28;;;;;;;192.23;178.05;;;4.50;99.90;;;;;;5058357;28;20225;-90
2021/12/06 00:17:22;;;;;;;;;;;;;;;;;;;;;
2021/12/06 00:20:17;;;;;;;153.77;140.48;;;4.50;99.90;;;;;;5094771;28;20201;-90
2021/12/06 00:23:35;;;;;;;;;;;;;;;;;;;;;
2021/12/06 00:26:45;;;;;;;177.93;164.10;;;4.50;99.90;;;;;;5081996;28;20171;-90
2021/12/06 00:33:00;;;;;;;179.00;164.90;;;4.50;99.90;;;;;;4982885;28;20583;-90
2021/12/06 00:35:44;;;;;;;175.18;161.60;;;4.50;99.90;;;;;;4992625;28;20194;-90
2021/12/06 00:38:45;;;;;;;;;;;;;;;;;;;;;
2021/12/06 00:41:39;;;;;;;183.13;169.13;;;4.50;99.90;;;;;;4991552;28;20174;-90
2021/12/06 00:48:19;;;;;;;183.05;169.15;;;4.50;99.90;;;;;;4977401;28;20613;-90
2021/12/06 00:54:15;;;;;;;;;;;;;;;;;;;;;
2021/12/06 00:56:50;;;;;;;144.10;131.77;;;4.50;99.90;;;;;;5093740;28;20171;-90
2021/12/06 00:59:42;;;;;;;165.93;152.57;;;4.40;99.90;;;;;;5092487;28;20669;-90
2021/12/06 01:03:14;;;;;;;173.73;160.05;;;4.40;99.90;;;;;;5091890;28;20216;-90
2021/12/06 01:06:19;;;;;;;145.10;132.55;;;4.30;99.90;;;;;;5084726;28;20252;-89
2021/12/06 01:08:48;;;;;;;153.95;141.15;;;4.30;99.90;;;;;;5073893;28;20602;-90
2021/12/06 01:12:06;;;;;;;143.23;130.85;;;4.30;99.90;;;;;;5076603;28;20241;-89
2021/12/06 01:14:56;;;;;;;150.75;137.60;;;4.30;99.90;;;;;;5043615;28;20278;-90
2021/12/06 01:18:19;;;;;;;180.63;166.27;;;4.30;99.90;;;;;;5097831;28;20645;-90
2021/12/06 01:28:14;;;;;;;126.28;114.28;;;4.30;99.90;;;;;;4995327;28;20182;-90
2021/12/06 01:40:46;;;;;;;;;;;;;;;;;;;;;
2021/12/06 01:43:48;;;;;;;146.27;133.43;;;4.40;99.90;;;;;;5040180;28;20176;-90
2021/12/06 01:56:51;;;;;;;117.53;105.85;;;4.40;99.90;;;;;;5088518;28;20195;-90
2021/12/06 01:59:42;;;;;;;113.00;101.57;;;4.40;99.90;;;;;;5074957;28;20215;-90
2021/12/06 02:02:42;;;;;;;137.38;125.40;;;4.30;99.90;;;;;;5078491;28;20152;-89
2021/12/06 02:06:15;;;;;;;124.72;112.85;;;4.30;99.90;;;;;;5081543;28;20186;-90
2021/12/06 02:11:19;;;;;;;134.90;122.10;;;4.30;99.90;;;;;;5191162;22;20240;-84
2021/12/06 02:14:00;;;;;;;136.23;124.07;;;4.30;99.90;;;;;;5118310;27;20154;-86
2021/12/06 02:16:35;;;;;;;148.57;135.55;;;4.30;99.90;;;;;;5123478;27;20241;-86
2021/12/06 02:19:17;;;;;;;134.73;122.63;;;4.40;99.90;;;;;;5124055;27;20199;-86
2021/12/06 02:21:43;;;;;;;137.85;125.57;;;4.40;99.90;;;;;;5142967;27;20596;-86
2021/12/06 02:24:15;;;;;;;128.10;116.27;;;4.30;99.90;;;;;;5162256;27;20176;-86
2021/12/06 02:26:45;;;;;;;152.23;139.50;;;4.30;99.90;;;;;;5143011;27;20434;-85
2021/12/06 02:29:13;;;;;;;146.60;134.13;;;4.30;99.90;;;;;;5161720;27;20185;-85
2021/12/06 02:31:39;;;;;;;160.93;147.85;;;4.30;99.90;;;;;;5163469;27;20169;-85
2021/12/06 02:37:35;;;;;;;130.98;118.32;;;4.30;99.90;;;;;;5098183;28;20833;-86
2021/12/06 02:40:08;;;;;;;140.07;127.68;;;4.30;99.90;;;;;;5134823;27;20227;-85
2021/12/06 02:42:38;;;;;;;134.35;122.32;;;4.20;99.90;;;;;;5161468;27;20164;-85
2021/12/06 02:45:09;;;;;;;131.02;118.95;;;4.30;99.90;;;;;;5143611;27;20218;-85
2021/12/06 02:47:38;;;;;;;174.68;160.93;;;4.30;99.90;;;;;;5144401;27;20165;-86
2021/12/06 02:50:11;;;;;;;132.38;120.28;;;4.30;99.90;;;;;;5162029;27;20536;-86
2021/12/06 02:52:41;;;;;;;130.93;118.78;;;4.20;99.90;;;;;;5162230;27;20597;-85
2021/12/06 02:57:57;;;;;;;127.60;115.78;;;4.20;99.90;;;;;;5161546;27;20149;-86
2021/12/06 03:00:34;;;;;;;136.80;124.68;;;4.20;99.90;;;;;;5161903;27;20525;-85
2021/12/06 03:03:08;;;;;;;132.82;120.30;;;4.20;99.90;;;;;;5161362;27;20149;-86
2021/12/06 03:05:36;;;;;;;125.40;113.60;;;4.20;99.90;;;;;;5160914;27;20161;-86
2021/12/06 03:08:03;;;;;;;125.15;112.88;;;4.20;99.90;;;;;;5142638;27;20172;-86
2021/12/06 03:10:32;;;;;;;151.20;137.82;;;4.20;99.90;;;;;;5142471;27;20192;-85
2021/12/06 03:13:02;;;;;;;174.90;161.05;;;4.30;99.90;;;;;;5160638;27;20169;-86
2021/12/06 03:15:31;;;;;;;130.23;118.18;;;4.20;99.90;;;;;;5160849;27;20319;-86
2021/12/06 03:17:58;;;;;;;126.88;115.13;;;4.20;99.90;;;;;;5161220;27;20153;-85
2021/12/06 03:20:24;;;;;;;152.70;139.52;;;4.20;99.90;;;;;;5161131;27;20208;-86
2021/12/06 03:22:50;;;;;;;146.13;133.20;;;4.20;99.90;;;;;;5142085;27;20245;-85
2021/12/06 03:25:17;;;;;;;144.32;131.73;;;4.20;99.90;;;;;;5161131;27;20469;-85
2021/12/06 03:27:44;;;;;;;153.98;140.98;;;4.20;99.90;;;;;;5141588;27;20703;-86
2021/12/06 03:30:11;;;;;;;138.40;125.75;;;4.20;99.90;;;;;;5141953;27;20192;-86
2021/12/06 03:32:37;;;;;;;149.57;137.10;;;4.20;99.90;;;;;;5160723;27;20643;-86
2021/12/06 03:35:03;;;;;;;142.53;130.30;;;4.20;99.90;;;;;;5159630;27;20189;-86
2021/12/06 03:37:29;;;;;;;160.43;147.05;;;4.20;99.90;;;;;;5161183;27;20565;-86
2021/12/06 03:39:55;;;;;;;119.53;108.00;;;4.20;99.90;;;;;;5160462;27;20184;-86
2021/12/06 03:42:23;;;;;;;125.18;113.32;;;4.20;99.90;;;;;;5160859;27;20157;-86
2021/12/06 03:44:50;;;;;;;140.25;127.68;;;4.20;99.90;;;;;;5160518;27;20169;-86
2021/12/06 03:47:22;;;;;;;147.35;134.52;;;4.20;99.90;;;;;;5160606;27;20213;-86
2021/12/06 03:49:48;;;;;;;146.82;134.35;;;4.20;99.90;;;;;;5142078;27;20197;-85
2021/12/06 03:52:17;;;;;;;130.00;117.83;;;4.20;99.90;;;;;;5159641;27;20632;-86
2021/12/06 03:54:43;;;;;;;129.90;117.97;;;4.20;99.90;;;;;;5159872;27;20490;-86
2021/12/06 03:57:09;;;;;;;131.18;119.30;;;4.20;99.90;;;;;;5142008;27;20169;-86
2021/12/06 03:59:35;;;;;;;132.33;119.73;;;4.20;99.90;;;;;;5160536;27;20187;-86
2021/12/06 04:02:01;;;;;;;117.30;106.03;;;4.30;99.90;;;;;;5159699;27;20399;-86
2021/12/06 04:04:30;;;;;;;137.27;125.17;;;4.30;99.90;;;;;;5142800;27;20165;-85
2021/12/06 04:06:56;;;;;;;137.45;125.30;;;4.30;99.90;;;;;;5160515;27;20399;-86
2021/12/06 04:09:22;;;;;;;135.00;122.78;;;4.20;99.90;;;;;;5141292;27;20189;-86
2021/12/06 04:11:49;;;;;;;131.90;119.97;;;4.20;99.90;;;;;;5159455;27;20259;-86
2021/12/06 04:14:18;;;;;;;126.68;114.53;;;4.20;99.90;;;;;;5141316;27;20450;-86
2021/12/06 04:16:44;;;;;;;123.22;111.43;;;4.10;99.90;;;;;;5160141;27;20153;-85
2021/12/06 04:19:10;;;;;;;124.13;112.53;;;4.00;99.90;;;;;;5159735;27;20182;-85
2021/12/06 04:21:39;;;;;;;122.32;110.40;;;4.00;99.90;;;;;;5159413;27;20210;-85
2021/12/06 04:24:05;;;;;;;127.70;115.25;;;3.90;99.90;;;;;;5141074;27;20168;-86
2021/12/06 04:26:34;;;;;;;122.50;110.50;;;3.90;99.90;;;;;;5140680;27;20679;-85
2021/12/06 04:29:01;;;;;;;131.20;119.32;;;3.90;99.90;;;;;;5140866;27;20949;-85
2021/12/06 04:31:33;;;;;;;125.25;113.38;;;3.90;99.90;;;;;;5159930;27;20244;-86
2021/12/06 04:33:59;;;;;;;137.18;124.20;;;3.80;99.90;;;;;;5141078;27;20193;-86
2021/12/06 04:36:25;;;;;;;143.48;131.20;;;3.80;99.90;;;;;;5141618;27;20248;-86
2021/12/06 04:38:51;;;;;;;147.80;134.33;;;3.80;99.90;;;;;;5159501;27;20185;-86
2021/12/06 04:41:20;;;;;;;116.00;104.50;;;3.70;99.90;;;;;;5159554;27;20435;-86
2021/12/06 04:43:46;;;;;;;120.72;108.82;;;3.80;99.90;;;;;;5160010;27;20482;-86
2021/12/06 04:46:15;;;;;;;104.65;93.53;;;3.70;99.90;;;;;;5141414;27;20172;-86
2021/12/06 04:48:42;;;;;;;118.57;106.97;;;3.70;99.90;;;;;;5159321;27;20214;-86
2021/12/06 04:51:08;;;;;;;126.85;114.60;;;3.70;99.90;;;;;;5159175;27;20212;-86
2021/12/06 04:53:37;;;;;;;135.45;123.00;;;3.70;99.90;;;;;;5141299;27;20168;-86
2021/12/06 04:56:16;;;;;;;138.35;126.20;;;3.70;99.90;;;;;;5159799;27;20220;-86
2021/12/06 04:59:07;;;;;;;108.68;96.75;;;3.70;99.90;;;;;;5141174;27;20157;-86
2021/12/06 05:01:35;;;;;;;117.00;105.45;;;3.80;99.90;;;;;;5140736;27;20164;-86
2021/12/06 05:04:09;;;;;;;123.18;111.10;;;3.80;99.90;;;;;;5159307;27;20195;-86
2021/12/06 05:06:38;;;;;;;110.20;98.72;;;3.80;99.90;;;;;;5159454;27;20181;-86
2021/12/06 05:09:14;;;;;;;113.88;102.43;;;3.90;99.90;;;;;;5158936;27;20181;-86
2021/12/06 05:11:40;;;;;;;110.78;99.32;;;3.90;99.90;;;;;;5159519;27;20204;-86
2021/12/06 05:14:06;;;;;;;108.65;97.13;;;3.90;99.90;;;;;;5159538;27;20149;-86
2021/12/06 05:16:33;;;;;;;109.97;98.73;;;3.90;99.90;;;;;;5140622;27;20536;-86
2021/12/06 05:18:59;;;;;;;112.90;101.55;;;3.90;99.90;;;;;;5158687;27;20180;-86
2021/12/06 05:21:27;;;;;;;106.47;94.93;;;3.90;99.90;;;;;;5159233;27;20161;-86
2021/12/06 05:23:57;;;;;;;112.38;101.03;;;3.90;99.90;;;;;;5159835;27;20485;-86
2021/12/06 05:26:49;;;;;;;123.68;111.90;;;3.90;99.90;;;;;;5140500;27;20165;-85
2021/12/06 05:29:25;;;;;;;111.20;100.03;;;3.90;99.90;;;;;;5140918;27;20251;-86
2021/12/06 05:31:56;;;;;;;106.65;95.47;;;3.80;99.90;;;;;;5140925;27;20157;-86
2021/12/06 05:34:38;;;;;;;118.32;106.68;;;3.80;99.90;;;;;;5140024;27;20284;-86
2021/12/06 05:37:11;;;;;;;106.25;95.15;;;3.80;99.90;;;;;;5142233;27;20188;-85
2021/12/06 05:39:41;;;;;;;116.88;105.38;;;3.70;99.90;;;;;;5141025;27;20189;-86
2021/12/06 05:42:15;;;;;;;121.88;110.22;;;3.70;99.90;;;;;;5158789;27;20150;-85
2021/12/06 05:45:08;;;;;;;127.38;114.65;;;3.60;99.90;;;;;;5158395;27;20198;-85
2021/12/06 05:47:34;;;;;;;110.88;99.60;;;3.70;99.90;;;;;;5143286;27;20576;-86
2021/12/06 05:50:10;;;;;;;132.50;120.10;;;3.60;99.90;;;;;;5159055;27;20185;-86
2021/12/06 05:52:54;;;;;;;122.05;110.40;;;3.70;99.90;;;;;;5158678;27;20402;-86
2021/12/06 05:55:21;;;;;;;112.97;101.60;;;3.70;99.90;;;;;;5158720;27;20173;-86
2021/12/06 05:57:56;;;;;;;105.50;94.20;;;3.70;99.90;;;;;;5141803;27;20165;-85
2021/12/06 06:00:28;;;;;;;112.95;101.47;;;3.60;99.90;;;;;;5143775;27;20673;-86
2021/12/06 06:02:53;;;;;;;105.30;91.22;;;3.60;99.90;;;;;;5162613;27;20485;-86
2021/12/06 06:05:20;;;;;;;102.60;91.50;;;3.60;99.90;;;;;;5162949;27;20214;-86
2021/12/06 06:07:46;;;;;;;109.10;97.68;;;3.50;99.90;;;;;;5144064;27;20165;-85
2021/12/06 06:10:12;;;;;;;105.20;94.03;;;3.60;99.90;;;;;;5162184;27;20189;-86
2021/12/06 06:12:38;;;;;;;109.90;98.28;;;3.60;99.90;;;;;;5162096;27;20585;-86
2021/12/06 06:15:10;;;;;;;99.10;88.00;;;3.60;99.90;;;;;;5162516;27;20272;-86
2021/12/06 06:17:42;;;;;;;108.32;97.10;;;3.60;99.90;;;;;;5162600;27;20146;-86
2021/12/06 06:20:21;;;;;;;103.35;88.85;;;3.60;99.90;;;;;;5143692;27;20653;-86
2021/12/06 06:22:47;;;;;;;98.30;86.32;;;3.70;99.90;;;;;;5144301;27;20160;-86
2021/12/06 06:25:14;;;;;;;96.10;84.67;;;3.60;99.90;;;;;;5162938;27;20532;-86
2021/12/06 06:27:39;;;;;;;110.28;98.57;;;3.60;99.90;;;;;;5143740;27;20412;-86
2021/12/06 06:30:06;;;;;;;95.17;80.30;;;3.60;99.90;;;;;;5162577;27;20252;-86
2021/12/06 06:32:32;;;;;;;99.15;85.80;;;3.60;99.90;;;;;;5162425;27;20176;-86
2021/12/06 06:35:13;;;;;;;101.95;90.93;;;3.70;99.90;;;;;;5143437;27;20196;-86
2021/12/06 06:37:52;;;;;;;;;;;;;;;;;;;;;
2021/12/06 06:40:23;;;;;;;106.65;95.60;;;3.70;99.90;;;;;;5162443;27;20260;-86
2021/12/06 06:42:49;;;;;;;102.50;91.53;;;3.60;99.90;;;;;;5143842;27;20161;-86
2021/12/06 06:45:18;;;;;;;110.67;99.37;;;3.60;99.90;;;;;;5143665;27;20253;-85
2021/12/06 06:47:46;;;;;;;109.72;97.97;;;3.50;99.90;;;;;;5144093;27;20398;-84
2021/12/06 06:50:15;;;;;;;106.05;94.63;;;3.60;99.90;;;;;;5161653;27;20185;-85
2021/12/06 06:52:42;;;;;;;107.95;96.45;;;3.60;99.90;;;;;;5143647;27;20169;-85
2021/12/06 06:55:09;;;;;;;112.28;100.88;;;3.60;99.90;;;;;;5161827;27;20388;-85
2021/12/06 06:57:40;;;;;;;101.47;87.00;;;3.60;99.90;;;;;;5162143;27;20188;-86
2021/12/06 07:00:17;;;;;;;123.13;110.72;;;3.50;99.90;;;;;;5162399;27;20260;-85
2021/12/06 07:02:46;;;;;;;117.30;105.68;;;3.40;99.90;;;;;;5161929;27;20224;-85
2021/12/06 07:05:20;;;;;;;131.45;119.15;;;3.30;99.90;;;;;;5162163;27;20173;-86
2021/12/06 07:08:12;;;;;;;118.05;106.15;;;3.10;99.90;;;;;;5161820;27;20168;-85
2021/12/06 07:10:42;;;;;;;120.53;108.57;;;3.00;99.90;;;;;;5155964;27;20208;-86
2021/12/06 07:13:12;;;;;;;108.53;96.72;;;2.90;99.90;;;;;;5142145;27;20181;-86
2021/12/06 07:15:55;;;;;;;;;;;;;;;;;;;;;
2021/12/06 07:19:27;;;;;;;114.47;102.57;;;2.90;99.90;;;;;;5161127;27;20244;-86
2021/12/06 07:21:22;;;;;;;104.55;93.13;;;2.80;99.90;;;;;;5146719;27;20647;-86
2021/12/06 07:23:51;;;;;;;109.47;97.60;;;2.80;99.90;;;;;;5160358;27;20165;-85
2021/12/06 07:26:32;;;;;;;128.73;116.38;;;2.70;99.90;;;;;;5160526;27;20179;-86
2021/12/06 07:29:14;;;;;;;113.65;101.80;;;2.80;99.90;;;;;;5159999;27;20153;-86
2021/12/06 07:31:42;;;;;;;98.97;77.93;;;2.70;99.90;;;;;;5142698;27;20166;-86
2021/12/06 07:34:16;;;;;;;126.03;112.97;;;2.80;99.90;;;;;;5141508;27;20261;-86
2021/12/06 07:37:22;;;;;;;101.75;84.75;;;2.90;99.90;;;;;;5142205;27;20579;-84
2021/12/06 07:40:22;;;;;;;107.18;84.53;;;3.00;99.90;;;;;;5129381;27;20192;-86
2021/12/06 07:42:59;;;;;;;105.28;78.50;;;3.10;99.90;;;;;;5159764;27;20646;-85
2021/12/06 07:45:31;;;;;;;115.70;100.38;;;3.20;99.90;;;;;;5159485;27;20190;-85
2021/12/06 07:48:06;;;;;;;119.25;106.38;;;3.20;99.90;;;;;;5160620;27;20149;-85
2021/12/06 07:50:34;;;;;;;107.65;90.07;;;3.20;99.90;;;;;;5160116;27;20547;-86
2021/12/06 07:53:10;;;;;;;115.35;94.00;;;3.20;99.90;;;;;;5159945;27;20165;-86
2021/12/06 07:56:10;;;;;;;122.72;101.03;;;3.20;99.90;;;;;;5160035;27;20176;-86
2021/12/06 07:58:55;;;;;;;112.35;93.97;;;3.30;99.90;;;;;;5133377;27;20180;-85
2021/12/06 08:01:27;;;;;;;115.05;98.40;;;3.30;99.90;;;;;;5138825;27;20164;-84
2021/12/06 08:04:05;;;;;;;115.45;102.63;;;3.40;99.90;;;;;;5157453;27;20198;-84
2021/12/06 08:06:44;;;;;;;117.85;100.65;;;3.40;99.90;;;;;;5156470;27;20178;-84
2021/12/06 08:09:24;;;;;;;115.72;90.30;;;3.40;99.90;;;;;;5139053;27;20189;-85
2021/12/06 08:11:50;;;;;;;120.20;89.43;;;3.40;99.90;;;;;;5193769;22;20253;-88
2021/12/06 08:15:14;;;;;;;;;;;;;;;;;;;;;
2021/12/06 08:18:45;;;;;;;;;;;;;;;;;;;;;
2021/12/06 08:21:51;;;;;;;;;;;;;;;;;;;;;
2021/12/06 08:25:14;;;;;;;;;;;;;;;;;;;;;
2021/12/06 08:28:01;;;;;;;;;;;;;;;;;;;;;
2021/12/06 08:30:59;;;;;;;128.27;114.00;;;3.40;99.90;;;;;;5011932;28;20182;-90
2021/12/06 08:37:13;;;;;;;117.75;91.72;;;3.50;99.90;;;;;;5034287;28;20551;-89
2021/12/06 08:39:47;;;;;;;109.53;86.28;;;3.70;99.90;;;;;;5071037;28;20206;-89
2021/12/06 08:42:19;;;;;;;126.78;112.68;;;3.80;99.90;;;;;;5069101;28;20186;-89
2021/12/06 08:44:51;;;;;;;121.68;105.78;;;3.90;99.90;;;;;;5075626;28;20625;-89
2021/12/06 08:47:33;;;;;;;137.45;123.35;;;3.90;99.90;;;;;;5075256;28;20208;-89
2021/12/06 08:52:55;;;;;;;116.38;96.32;;;4.10;99.90;;;;;;5094114;28;20151;-89
2021/12/06 08:55:28;;;;;;;115.72;100.80;;;4.10;99.90;;;;;;5092921;28;20206;-89
2021/12/06 08:57:56;;;;;;;130.75;113.68;;;4.30;99.90;;;;;;5075176;28;20162;-89
2021/12/06 09:00:36;;;;;;;112.53;95.68;;;4.20;99.90;;;;;;5093148;28;20179;-89
2021/12/06 09:03:07;;;;;;;119.47;103.22;;;4.30;99.90;;;;;;5075475;28;20163;-89
2021/12/06 09:05:50;;;;;;;117.65;105.10;;;4.40;99.90;;;;;;5075862;28;20167;-89
2021/12/06 09:08:17;;;;;;;112.85;92.05;;;4.30;99.90;;;;;;5071992;28;20281;-89
2021/12/06 09:10:47;;;;;;;110.93;95.60;;;4.30;99.90;;;;;;5088637;28;20265;-89
2021/12/06 09:13:17;;;;;;;116.85;89.03;;;4.40;99.90;;;;;;5093326;28;20262;-89
2021/12/06 09:15:56;;;;;;;118.80;99.97;;;4.40;99.90;;;;;;5075726;28;20233;-89
2021/12/06 09:18:25;;;;;;;113.93;90.57;;;4.40;99.90;;;;;;5074779;28;20266;-89
2021/12/06 09:20:57;;;;;;;130.43;112.93;;;4.40;99.90;;;;;;5093679;28;20215;-89
2021/12/06 09:23:26;;;;;;;125.38;99.13;;;4.30;99.90;;;;;;5075925;28;20166;-89
2021/12/06 09:25:55;;;;;;;130.88;103.13;;;4.30;99.90;;;;;;5092901;28;20187;-89
2021/12/06 09:28:28;;;;;;;122.55;104.03;;;4.40;99.90;;;;;;5093075;28;20250;-89
2021/12/06 09:31:01;;;;;;;123.93;102.75;;;4.40;99.90;;;;;;5075705;28;20191;-89
2021/12/06 09:33:28;;;;;;;123.00;99.13;;;4.50;99.90;;;;;;5095563;28;20175;-90
2021/12/06 09:36:15;;;;;;;121.72;98.13;;;4.40;99.90;;;;;;5097542;28;20209;-89
2021/12/06 09:38:44;;;;;;;121.03;90.38;;;4.30;99.90;;;;;;5096875;28;20146;-89
2021/12/06 09:41:18;;;;;;;114.75;97.38;;;4.50;99.90;;;;;;5078672;28;20191;-90
2021/12/06 09:44:01;;;;;;;120.90;104.78;;;4.60;99.90;;;;;;5096937;28;20172;-89
2021/12/06 09:46:34;;;;;;;119.90;106.95;;;4.50;99.90;;;;;;5078848;28;20262;-90
2021/12/06 09:49:08;;;;;;;116.70;99.20;;;4.60;99.90;;;;;;5096745;28;20551;-89
2021/12/06 09:51:40;;;;;;;126.00;99.55;;;4.60;99.90;;;;;;5096882;28;20151;-89
2021/12/06 09:54:15;;;;;;;129.23;99.68;;;4.60;99.90;;;;;;5078137;28;20178;-89
2021/12/06 09:57:02;;;;;;;129.25;109.85;;;4.70;99.90;;;;;;5078072;28;20205;-90
2021/12/06 09:59:32;;;;;;;121.72;108.25;;;4.80;99.90;;;;;;5076744;28;20231;-89
2021/12/06 10:02:14;;;;;;;134.55;120.20;;;4.90;99.90;;;;;;5078251;28;20163;-89
2021/12/06 10:05:13;;;;;;;122.22;108.50;;;5.00;99.90;;;;;;5077913;28;20171;-89
2021/12/06 10:07:45;;;;;;;128.45;114.38;;;5.00;99.90;;;;;;5080168;28;20541;-89
2021/12/06 10:10:17;;;;;;;125.10;102.60;;;4.90;99.90;;;;;;5095944;28;20558;-89
2021/12/06 10:12:51;;;;;;;124.68;111.00;;;4.80;99.90;;;;;;5076941;28;20278;-89
2021/12/06 10:15:25;;;;;;;145.38;130.48;;;4.80;99.90;;;;;;5076375;28;20198;-89
2021/12/06 10:18:03;;;;;;;122.47;109.20;;;4.80;99.90;;;;;;5096014;28;20193;-89
2021/12/06 10:20:35;;;;;;;132.80;118.95;;;4.70;99.90;;;;;;5075019;28;20186;-89
2021/12/06 10:23:04;;;;;;;129.60;115.57;;;4.80;99.90;;;;;;5096316;28;20143;-89
2021/12/06 10:25:47;;;;;;;143.98;129.25;;;5.00;99.90;;;;;;5077848;28;20244;-89
2021/12/06 10:28:35;;;;;;;138.05;123.50;;;5.10;99.90;;;;;;5077135;28;20201;-89
2021/12/06 10:31:08;;;;;;;150.48;135.23;;;5.10;99.90;;;;;;5077575;28;20211;-89
2021/12/06 10:33:43;;;;;;;152.98;137.80;;;5.00;99.90;;;;;;5077952;28;20258;-89
2021/12/06 10:36:17;;;;;;;157.63;142.65;;;4.80;99.90;;;;;;5095588;28;20248;-89
2021/12/06 10:38:53;;;;;;;166.65;151.18;;;4.80;99.90;;;;;;5077910;28;20158;-89
2021/12/06 10:41:29;;;;;;;182.20;165.77;;;4.90;99.90;;;;;;5077509;28;20234;-90
2021/12/06 10:44:14;;;;;;;156.55;141.27;;;5.00;99.90;;;;;;5095214;28;20222;-89
2021/12/06 10:46:46;;;;;;;155.00;139.75;;;5.20;99.90;;;;;;5073538;28;20190;-89
2021/12/06 10:49:17;;;;;;;153.27;138.05;;;5.40;99.90;;;;;;5091393;28;20183;-89
2021/12/06 10:51:46;;;;;;;156.55;141.02;;;5.60;99.90;;;;;;5095281;28;20188;-89
2021/12/06 10:54:30;;;;;;;170.45;154.90;;;5.80;99.90;;;;;;5095116;28;20534;-89
2021/12/06 10:57:16;;;;;;;171.63;155.63;;;5.90;99.90;;;;;;5078053;28;20186;-89
2021/12/06 10:59:42;;;;;;;172.23;156.30;;;6.00;99.90;;;;;;5076881;28;20187;-89
2021/12/06 11:02:20;;;;;;;202.20;186.17;;;6.00;99.90;;;;;;5076815;28;20163;-89
2021/12/06 11:04:51;;;;;;;125.43;111.75;;;5.90;99.90;;;;;;5095130;28;20241;-89
2021/12/06 11:07:57;;;;;;;128.93;108.47;;;5.80;99.90;;;;;;5077873;28;20163;-89
2021/12/06 11:10:28;;;;;;;115.90;76.25;;;5.70;99.90;;;;;;5069842;28;20277;-89
2021/12/06 11:13:17;;;;;;;114.10;86.53;;;5.80;99.90;;;;;;5076869;28;20718;-89
2021/12/06 11:16:14;;;;;;;119.93;96.47;;;5.80;99.90;;;;;;5094731;28;20274;-89
2021/12/06 11:19:09;;;;;;;117.05;96.13;;;5.90;99.90;;;;;;5076588;28;20662;-89
2021/12/06 11:21:46;;;;;;;105.13;78.25;;;5.90;99.90;;;;;;5076249;28;20171;-89
2021/12/06 11:24:39;;;;;;;106.60;77.60;;;5.60;99.90;;;;;;5076365;28;20182;-89
2021/12/06 11:27:23;;;;;;;106.05;77.20;;;5.60;99.90;;;;;;5076448;28;20156;-89
2021/12/06 11:30:11;;;;;;;112.85;86.05;;;5.70;99.90;;;;;;5076575;28;20182;-89
2021/12/06 11:32:44;;;;;;;118.88;87.22;;;5.60;99.90;;;;;;5076241;28;20614;-89
2021/12/06 11:36:25;;;;;;;;;;;;;;;;;;;;;
2021/12/06 11:38:59;;;;;;;104.22;64.90;;;5.60;99.90;;;;;;4994513;28;20179;-89
2021/12/06 11:41:25;;;;;;;113.40;83.03;;;5.40;99.90;;;;;;5075879;28;20163;-88
2021/12/06 11:43:51;;;;;;;120.80;91.47;;;5.40;99.90;;;;;;5076549;28;20158;-88
2021/12/06 11:46:38;;;;;;;114.50;85.33;;;5.40;99.90;;;;;;5076185;28;20409;-88
2021/12/06 11:49:38;;;;;;;119.45;87.10;;;5.50;99.90;;;;;;5094435;28;20679;-89
2021/12/06 11:55:21;;;;;;;117.75;98.18;;;5.40;99.90;;;;;;5050716;28;20267;-88
2021/12/06 11:58:22;;;;;;;156.25;141.82;;;5.50;99.90;;;;;;5093489;28;20646;-88
2021/12/06 12:01:22;;;;;;;141.00;127.80;;;5.40;99.90;;;;;;5088834;28;20654;-89
2021/12/06 12:04:28;;;;;;;181.52;166.73;;;5.50;99.90;;;;;;5076003;28;20159;-89
2021/12/06 12:07:00;;;;;;;169.45;154.95;;;5.50;99.90;;;;;;5072750;28;20174;-88
2021/12/06 12:09:37;;;;;;;206.85;191.15;;;5.60;99.90;;;;;;5075653;28;20187;-88
2021/12/06 12:12:20;;;;;;;177.32;162.90;;;5.60;99.90;;;;;;5075482;28;20187;-88
2021/12/06 12:14:58;;;;;;;174.80;160.75;;;5.60;99.90;;;;;;5075304;28;20195;-88
2021/12/06 12:17:30;;;;;;;149.80;136.52;;;5.60;99.90;;;;;;5086722;28;20143;-88
2021/12/06 12:19:58;;;;;;;164.63;150.75;;;5.60;99.90;;;;;;5075304;28;20192;-88
2021/12/06 12:22:25;;;;;;;163.73;149.25;;;5.70;99.90;;;;;;5075395;28;20261;-88
2021/12/06 12:24:58;;;;;;;108.13;90.63;;;5.60;99.90;;;;;;5093531;28;20178;-88
2021/12/06 12:30:00;;;;;;;102.68;87.60;;;5.90;99.90;;;;;;5094249;28;20530;-88
2021/12/06 12:32:30;;;;;;;100.50;79.13;;;5.90;99.90;;;;;;5075304;28;20178;-88
2021/12/06 12:35:12;;;;;;;;;;;;;;;;;;;;;
2021/12/06 12:37:51;;;;;;;100.78;74.40;;;5.90;99.90;;;;;;5093471;28;20656;-88
2021/12/06 12:40:40;;;;;;;96.70;73.45;;;5.90;99.90;;;;;;5075056;28;20278;-88
2021/12/06 12:43:25;;;;;;;98.53;77.20;;;6.00;99.90;;;;;;5093557;28;20143;-88
2021/12/06 12:46:27;;;;;;;;;;;;;;;;;;;;;
2021/12/06 12:49:04;;;;;;;97.25;68.45;;;6.00;99.90;;;;;;5090286;28;20182;-88
2021/12/06 12:51:39;;;;;;;98.50;73.10;;;6.10;99.90;;;;;;5075544;28;20492;-89
2021/12/06 12:54:31;;;;;;;92.18;63.92;;;6.10;99.90;;;;;;5075497;28;20162;-88
2021/12/06 12:57:14;;;;;;;86.60;42.03;;;6.10;99.90;;;;;;5058755;28;20224;-88
2021/12/06 12:59:50;;;;;;;76.90;19.48;;;6.10;99.90;;;;;;5075658;28;20222;-88
2021/12/06 13:02:30;;;;;;;75.75;15.25;;;6.10;99.90;;;;;;5075262;28;20212;-88
2021/12/06 13:05:04;;;;;;;78.13;23.25;;;6.20;99.90;;;;;;5075256;28;20194;-89
2021/12/06 13:07:39;;;;;;;77.95;27.48;;;6.20;99.90;;;;;;5096257;28;20541;-88
2021/12/06 13:10:30;;;;;;;77.13;25.10;;;6.30;99.90;;;;;;5079322;28;20553;-89
2021/12/06 13:13:22;;;;;;;76.82;23.05;;;6.30;99.90;;;;;;5079960;28;20219;-88
2021/12/06 13:16:21;;;;;;;;;;;;;;;;;;;;;
2021/12/06 13:19:03;;;;;;;73.43;11.10;;;6.40;99.90;;;;;;5097355;28;20488;-88
2021/12/06 13:21:31;;;;;;;70.65;8.15;;;6.40;99.90;;;;;;5083470;28;20155;-88
2021/12/06 13:24:30;;;;;;;72.78;16.65;;;6.50;99.90;;;;;;5080255;28;20167;-88
2021/12/06 13:27:28;;;;;;;70.28;13.05;;;6.50;99.90;;;;;;5097071;28;20163;-88
2021/12/06 13:30:38;;;;;;;74.97;22.88;;;6.50;99.90;;;;;;5030671;28;20585;-88
2021/12/06 13:33:39;;;;;;;73.30;20.75;;;6.40;99.90;;;;;;5047002;28;20218;-88
2021/12/06 13:36:59;;;;;;;74.05;15.98;;;6.30;99.90;;;;;;5078362;28;20197;-88
2021/12/06 13:40:16;;;;;;;73.57;14.52;;;6.30;99.90;;;;;;5014671;28;20186;-88
2021/12/06 13:43:12;;;;;;;71.53;11.27;;;6.30;99.90;;;;;;4993941;28;20204;-88
2021/12/06 13:46:09;;;;;;;74.63;10.63;;;6.40;99.90;;;;;;5014179;28;20174;-88
2021/12/06 13:48:58;;;;;;;71.75;11.73;;;6.30;99.90;;;;;;5094930;28;20207;-88
2021/12/06 13:52:01;;;;;;;;;;;;;;;;;;;;;
2021/12/06 13:54:50;;;;;;;76.75;30.15;;;6.20;99.90;;;;;;5096423;28;20240;-87
2021/12/06 13:57:37;;;;;;;77.82;29.73;;;6.00;99.90;;;;;;5078813;28;20151;-88
2021/12/06 14:00:11;;;;;;;75.15;24.35;;;6.00;99.90;;;;;;5096185;28;20548;-88
2021/12/06 14:02:37;;;;;;;77.03;31.33;;;6.00;99.90;;;;;;5078388;28;20166;-87
2021/12/06 14:05:49;;;;;;;76.57;24.13;;;5.90;99.90;;;;;;5096488;28;20168;-87
2021/12/06 14:08:38;;;;;;;74.15;19.98;;;5.80;99.90;;;;;;5072123;28;20726;-87
2021/12/06 14:11:04;;;;;;;77.00;30.33;;;5.80;99.90;;;;;;5077620;28;20183;-88
2021/12/06 14:17:13;;;;;;;;;;;;;;;;;;;;;
2021/12/06 14:23:35;;;;;;;72.88;13.38;;;5.90;99.90;;;;;;5053963;28;20206;-86
2021/12/06 14:26:21;;;;;;;76.47;23.60;;;5.70;99.90;;;;;;5057323;27;20177;-85
2021/12/06 14:28:48;;;;;;;76.03;23.83;;;5.70;99.90;;;;;;5162010;27;20680;-86
2021/12/06 14:31:48;;;;;;;;;;;;;;;;;;;;;
2021/12/06 14:40:59;;;;;;;73.75;16.10;;;5.30;99.90;;;;;;5161734;27;20177;-87
2021/12/06 14:44:16;;;;;;;78.57;33.33;;;5.20;99.90;;;;;;5143123;27;20165;-87
2021/12/06 14:47:28;;;;;;;74.90;22.00;;;5.30;99.90;;;;;;5141652;27;20253;-87
2021/12/06 14:50:38;;;;;;;75.80;24.05;;;5.30;99.90;;;;;;5142583;27;20192;-87
2021/12/06 14:53:32;;;;;;;;;;;;;;;;;;;;;
2021/12/06 14:56:51;;;;;;;76.07;20.65;;;5.20;99.90;;;;;;5161284;27;20287;-87
2021/12/06 14:59:42;;;;;;;85.65;31.40;;;5.20;99.90;;;;;;5154985;27;20173;-88
2021/12/06 15:09:51;;;;;;;84.90;22.65;;;5.00;99.90;;;;;;5099757;27;20340;-86
2021/12/06 15:12:48;;;;;;;83.97;30.40;;;4.90;99.90;;;;;;5143283;27;20177;-86